createdAt,value
2022-09-14T00:01:25.416Z,76294.56
2022-09-14T00:03:54.576Z,76296.53
2022-09-14T00:06:21.341Z,76304.50
2022-09-14T00:08:52.474Z,76302.50
2022-09-14T00:11:19.655Z,76308.47
2022-09-14T00:13:47.775Z,76304.50
2022-09-14T00:16:17.593Z,76310.44
2022-09-14T00:18:45.298Z,76308.47
2022-09-14T00:21:12.920Z,76312.44
2022-09-14T00:23:41.313Z,76326.34
2022-09-14T00:26:17.104Z,76330.31
2022-09-14T00:28:58.068Z,76316.41
2022-09-14T00:31:25.950Z,76310.44
2022-09-14T00:33:53.337Z,76312.44
2022-09-14T00:36:23.227Z,76316.41
2022-09-14T00:38:50.688Z,76316.41
2022-09-14T00:41:23.440Z,76320.38
2022-09-14T00:44:01.609Z,76312.44
2022-09-14T00:46:31.324Z,76306.47
2022-09-14T00:49:00.337Z,76294.56
2022-09-14T00:51:28.928Z,76298.53
2022-09-14T00:53:55.704Z,76284.63
2022-09-14T00:56:22.269Z,76276.66
2022-09-14T00:58:51.879Z,76254.81
2022-09-14T01:01:19.674Z,76256.78
2022-09-14T01:03:46.226Z,76244.88
2022-09-14T01:06:38.523Z,76248.84
2022-09-14T01:09:40.503Z,76258.78
2022-09-14T01:12:33.128Z,76260.78
2022-09-14T01:15:14.347Z,76270.72
2022-09-14T01:17:52.983Z,76280.66
2022-09-14T01:20:31.712Z,76278.66
2022-09-14T01:23:10.619Z,76264.75
2022-09-14T01:26:03.674Z,76276.66
2022-09-14T01:29:06.457Z,76286.59
2022-09-14T01:31:59.709Z,76294.56
2022-09-14T01:34:57.321Z,76294.56
2022-09-14T01:37:33.552Z,76296.53
2022-09-14T01:40:22.161Z,76306.47
2022-09-14T01:42:53.762Z,76314.41
2022-09-14T01:45:24.365Z,76320.38
2022-09-14T01:48:05.564Z,76316.41
2022-09-14T01:50:43.590Z,76316.41
2022-09-14T01:53:15.324Z,76328.34
2022-09-14T01:55:44.491Z,76330.31
2022-09-14T01:58:28.994Z,76334.28
2022-09-14T02:00:57.217Z,76334.28
2022-09-14T02:03:29.376Z,76332.31
2022-09-14T02:06:12.945Z,76320.38
2022-09-14T02:08:39.468Z,76320.38
2022-09-14T02:11:06.531Z,76326.34
2022-09-14T02:13:33.573Z,76324.34
2022-09-14T02:16:00.196Z,76324.34
2022-09-14T02:18:26.784Z,76326.34
2022-09-14T02:20:58.895Z,76320.38
2022-09-14T02:23:25.895Z,76316.41
2022-09-14T02:25:52.784Z,76326.34
2022-09-14T02:28:19.467Z,76340.25
2022-09-14T02:31:11.189Z,76336.28
2022-09-14T02:33:49.488Z,76338.25
2022-09-14T02:36:28.122Z,76338.25
2022-09-14T02:39:10.072Z,76340.25
2022-09-14T02:41:49.864Z,76346.22
2022-09-14T02:44:29.988Z,76354.16
2022-09-14T02:47:47.554Z,76358.13
2022-09-14T02:50:39.818Z,76362.09
2022-09-14T02:53:28.507Z,76360.13
2022-09-14T02:56:03.239Z,76352.19
2022-09-14T02:58:38.293Z,76350.19
2022-09-14T03:01:06.584Z,76356.16
2022-09-14T03:03:35.653Z,76348.19
2022-09-14T03:06:03.762Z,76356.16
2022-09-14T03:08:30.377Z,76344.22
2022-09-14T03:10:57.355Z,76354.16
2022-09-14T03:13:24.545Z,76344.22
2022-09-14T03:15:51.185Z,76352.19
2022-09-14T03:18:18.043Z,76352.19
2022-09-14T03:20:45.386Z,76352.19
2022-09-14T03:23:12.710Z,76362.09
2022-09-14T03:25:43.734Z,76362.09
2022-09-14T03:28:11.671Z,76360.13
2022-09-14T03:30:38.190Z,76344.22
2022-09-14T03:33:04.674Z,76340.25
2022-09-14T03:35:32.223Z,76336.28
2022-09-14T03:37:59.759Z,76334.28
2022-09-14T03:40:26.830Z,76332.31
2022-09-14T03:42:53.449Z,76334.28
2022-09-14T03:45:21.447Z,76336.28
2022-09-14T03:47:48.688Z,76346.22
2022-09-14T03:50:16.465Z,76352.19
2022-09-14T03:52:43.016Z,76356.16
2022-09-14T03:55:10.826Z,76356.16
2022-09-14T03:57:37.697Z,76362.09
2022-09-14T04:00:07.140Z,76350.19
2022-09-14T04:02:33.723Z,76354.16
2022-09-14T04:05:00.386Z,76350.19
2022-09-14T04:07:27.041Z,76346.22
2022-09-14T04:09:53.492Z,76354.16
2022-09-14T04:12:19.911Z,76356.16
2022-09-14T04:14:46.360Z,76364.09
2022-09-14T04:17:12.979Z,76372.03
2022-09-14T04:19:40.975Z,76374.03
2022-09-14T04:22:07.939Z,76376.03
2022-09-14T04:24:34.690Z,76376.03
2022-09-14T04:27:01.325Z,76383.97
2022-09-14T04:29:30.438Z,76378.00
2022-09-14T04:31:57.448Z,76370.06
2022-09-14T04:34:24.852Z,76366.09
2022-09-14T04:36:51.343Z,76370.06
2022-09-14T04:39:18.142Z,76370.06
2022-09-14T04:41:44.627Z,76370.06
2022-09-14T04:44:11.423Z,76381.97
2022-09-14T04:46:43.598Z,76358.13
2022-09-14T04:49:13.073Z,76350.19
2022-09-14T04:51:39.722Z,76352.19
2022-09-14T04:54:06.862Z,76358.13
2022-09-14T04:56:35.979Z,76350.19
2022-09-14T04:59:04.557Z,76340.25
2022-09-14T05:01:35.525Z,76332.31
2022-09-14T05:04:03.032Z,76328.34
2022-09-14T05:06:32.272Z,76322.38
2022-09-14T05:09:02.706Z,76330.31
2022-09-14T05:11:32.194Z,76330.31
2022-09-14T05:13:59.905Z,76344.22
2022-09-14T05:16:29.175Z,76336.28
2022-09-14T05:18:58.620Z,76326.34
2022-09-14T05:21:25.221Z,76332.31
2022-09-14T05:23:59.929Z,76312.44
2022-09-14T05:26:28.432Z,76324.34
2022-09-14T05:28:58.317Z,76330.31
2022-09-14T05:31:26.481Z,76318.41
2022-09-14T05:33:53.996Z,76300.50
2022-09-14T05:36:20.959Z,76304.50
2022-09-14T05:38:47.505Z,76290.56
2022-09-14T05:41:15.679Z,76276.66
2022-09-14T05:43:42.609Z,76288.59
2022-09-14T05:46:14.724Z,76262.75
2022-09-14T05:48:41.730Z,76266.72
2022-09-14T05:51:16.349Z,76276.66
2022-09-14T05:53:46.985Z,76264.75
2022-09-14T05:56:13.892Z,76258.78
2022-09-14T05:58:42.145Z,76254.81
2022-09-14T06:01:22.406Z,76246.88
2022-09-14T06:03:50.155Z,76240.91
2022-09-14T06:06:18.559Z,76223.03
2022-09-14T06:08:45.644Z,76217.06
2022-09-14T06:11:15.555Z,76215.06
2022-09-14T06:13:43.401Z,76223.03
2022-09-14T06:16:13.142Z,76203.16
2022-09-14T06:18:44.016Z,76189.25
2022-09-14T06:21:15.278Z,76183.28
2022-09-14T06:23:44.335Z,76189.25
2022-09-14T06:26:11.312Z,76189.25
2022-09-14T06:28:38.357Z,76163.41
2022-09-14T06:31:07.544Z,76155.47
2022-09-14T06:33:35.209Z,76159.44
2022-09-14T06:36:04.730Z,76157.44
2022-09-14T06:38:31.247Z,76165.41
2022-09-14T06:40:59.997Z,76167.38
2022-09-14T06:43:28.331Z,76159.44
2022-09-14T06:46:05.854Z,76169.38
2022-09-14T06:48:35.491Z,76161.44
2022-09-14T06:51:19.353Z,76143.53
2022-09-14T06:53:47.466Z,76149.50
2022-09-14T06:56:14.441Z,76131.63
2022-09-14T06:58:41.471Z,76145.53
2022-09-14T07:01:11.644Z,76117.72
2022-09-14T07:03:42.721Z,76103.81
2022-09-14T07:06:13.019Z,76085.91
2022-09-14T07:08:40.242Z,76066.06
2022-09-14T07:11:08.791Z,76066.06
2022-09-14T07:13:35.654Z,76070.03
2022-09-14T07:16:03.528Z,76056.13
2022-09-14T07:18:33.875Z,76050.16
2022-09-14T07:21:05.540Z,76008.44
2022-09-14T07:23:32.916Z,75994.53
2022-09-14T07:26:05.220Z,75974.66
2022-09-14T07:28:33.047Z,75962.75
2022-09-14T07:31:00.263Z,75944.84
2022-09-14T07:33:27.627Z,75928.97
2022-09-14T07:35:54.209Z,75907.09
2022-09-14T07:38:35.606Z,75938.91
2022-09-14T07:41:07.632Z,75928.97
2022-09-14T07:43:35.024Z,75917.03
2022-09-14T07:46:03.727Z,75887.22
2022-09-14T07:48:34.765Z,75893.19
2022-09-14T07:51:03.165Z,75919.03
2022-09-14T07:53:30.951Z,75885.25
2022-09-14T07:56:01.654Z,75879.28
2022-09-14T07:58:28.927Z,75893.19
2022-09-14T08:01:04.559Z,75865.38
2022-09-14T08:03:31.663Z,75863.41
2022-09-14T08:06:04.230Z,75845.50
2022-09-14T08:08:32.183Z,75821.69
2022-09-14T08:11:08.462Z,75821.69
2022-09-14T08:13:37.416Z,75807.75
2022-09-14T08:16:05.032Z,75801.81
2022-09-14T08:18:32.811Z,75799.81
2022-09-14T08:21:10.834Z,75803.78
2022-09-14T08:23:38.482Z,75795.84
2022-09-14T08:26:10.376Z,75803.78
2022-09-14T08:28:37.085Z,75807.75
2022-09-14T08:31:05.998Z,75811.75
2022-09-14T08:33:34.469Z,75815.72
2022-09-14T08:36:01.042Z,75811.75
2022-09-14T08:38:28.049Z,75815.72
2022-09-14T08:40:54.838Z,75795.84
2022-09-14T08:43:24.366Z,75775.97
2022-09-14T08:45:55.183Z,75783.94
2022-09-14T08:48:33.431Z,75795.84
2022-09-14T08:51:00.245Z,75772.00
2022-09-14T08:53:26.948Z,75764.06
2022-09-14T08:56:12.088Z,75768.03
2022-09-14T08:59:08.024Z,75754.13
2022-09-14T09:01:43.268Z,75738.22
2022-09-14T09:04:31.308Z,75696.50
2022-09-14T09:07:39.031Z,75696.50
2022-09-14T09:10:08.941Z,75684.59
2022-09-14T09:12:43.989Z,75660.75
2022-09-14T09:15:32.469Z,75640.88
2022-09-14T09:18:05.011Z,75619.03
2022-09-14T09:20:48.201Z,75603.13
2022-09-14T09:23:18.140Z,75571.34
2022-09-14T09:25:58.899Z,75559.44
2022-09-14T09:28:28.503Z,75573.34
2022-09-14T09:30:58.531Z,75547.50
2022-09-14T09:33:27.260Z,75557.44
2022-09-14T09:35:55.359Z,75547.50
2022-09-14T09:38:25.919Z,75553.47
2022-09-14T09:40:57.243Z,75555.47
2022-09-14T09:43:45.366Z,75531.63
2022-09-14T09:46:12.497Z,75525.66
2022-09-14T09:48:40.790Z,75545.53
2022-09-14T09:51:19.820Z,75551.50
2022-09-14T09:53:52.337Z,75537.59
2022-09-14T09:56:31.871Z,75521.69
2022-09-14T09:58:58.477Z,75531.63
2022-09-14T10:01:34.179Z,75485.94
2022-09-14T10:04:00.639Z,75477.97
2022-09-14T10:06:27.489Z,75493.88
2022-09-14T10:08:57.459Z,75497.84
2022-09-14T10:11:36.506Z,75458.13
2022-09-14T10:14:04.963Z,75464.06
2022-09-14T10:16:41.563Z,75450.16
2022-09-14T10:19:18.516Z,75450.16
2022-09-14T10:22:09.960Z,75452.16
2022-09-14T10:24:37.996Z,75456.13
2022-09-14T10:27:52.885Z,75495.88
2022-09-14T10:30:22.180Z,75477.97
2022-09-14T10:33:02.327Z,75485.94
2022-09-14T10:35:36.031Z,75519.69
2022-09-14T10:38:31.530Z,75547.50
2022-09-14T10:41:40.511Z,75515.72
2022-09-14T10:44:19.568Z,75545.53
2022-09-14T10:47:09.906Z,75525.66
2022-09-14T10:50:10.051Z,75503.81
2022-09-14T10:52:58.560Z,75495.88
2022-09-14T10:55:37.029Z,75489.91
2022-09-14T10:58:37.717Z,75489.91
2022-09-14T11:01:26.930Z,75474.00
2022-09-14T11:04:08.051Z,75458.13
2022-09-14T11:06:59.865Z,75428.31
2022-09-14T11:09:33.815Z,75432.28
2022-09-14T11:12:14.627Z,75456.13
2022-09-14T11:14:53.915Z,75456.13
2022-09-14T11:17:45.284Z,75501.81
2022-09-14T11:20:32.115Z,75489.91
2022-09-14T11:23:16.887Z,75479.97
2022-09-14T11:25:49.348Z,75468.06
2022-09-14T11:28:41.745Z,75468.06
2022-09-14T11:31:29.117Z,75454.16
2022-09-14T11:34:21.378Z,75418.38
2022-09-14T11:36:55.846Z,75410.44
2022-09-14T11:39:28.021Z,75396.53
2022-09-14T11:42:04.068Z,75374.69
2022-09-14T11:44:38.088Z,75366.75
2022-09-14T11:47:13.516Z,75384.63
2022-09-14T11:49:52.227Z,75340.91
2022-09-14T11:52:25.299Z,75305.16
2022-09-14T11:54:52.675Z,75317.06
2022-09-14T11:57:20.707Z,75332.97
2022-09-14T11:59:50.424Z,75340.91
2022-09-14T12:02:23.253Z,75330.97
2022-09-14T12:05:05.381Z,75319.06
2022-09-14T12:07:46.939Z,75330.97
2022-09-14T12:10:17.678Z,75392.56
2022-09-14T12:12:46.554Z,75342.91
2022-09-14T12:15:25.114Z,75342.91
2022-09-14T12:17:53.815Z,75311.13
2022-09-14T12:20:43.492Z,75285.28
2022-09-14T12:23:13.053Z,75273.38
2022-09-14T12:25:52.911Z,75291.25
2022-09-14T12:28:37.812Z,75295.22
2022-09-14T12:31:04.419Z,75271.38
2022-09-14T12:33:33.971Z,75263.44
2022-09-14T12:36:04.141Z,75273.38
2022-09-14T12:38:30.584Z,75281.31
2022-09-14T12:41:02.118Z,75319.06
2022-09-14T12:43:37.732Z,75332.97
2022-09-14T12:46:04.243Z,75334.97
2022-09-14T12:48:49.187Z,75323.03
2022-09-14T12:51:29.477Z,75338.94
2022-09-14T12:54:01.763Z,75350.84
2022-09-14T12:56:38.330Z,75330.97
2022-09-14T12:59:18.069Z,75323.03
2022-09-14T13:02:12.311Z,75327.00
2022-09-14T13:04:40.798Z,75334.97
2022-09-14T13:07:17.726Z,75319.06
2022-09-14T13:09:50.494Z,75317.06
2022-09-14T13:12:27.502Z,75309.13
2022-09-14T13:14:58.272Z,75307.16
2022-09-14T13:17:24.779Z,75311.13
2022-09-14T13:20:00.216Z,75319.06
2022-09-14T13:22:29.512Z,75323.03
2022-09-14T13:24:58.818Z,75327.00
2022-09-14T13:27:32.119Z,75319.06
2022-09-14T13:30:03.128Z,75299.19
2022-09-14T13:32:31.117Z,75305.16
2022-09-14T13:34:58.007Z,75323.03
2022-09-14T13:37:25.409Z,75325.03
2022-09-14T13:39:54.714Z,75327.00
2022-09-14T13:42:22.515Z,75338.94
2022-09-14T13:44:50.349Z,75332.97
2022-09-14T13:47:21.973Z,75330.97
2022-09-14T13:49:50.504Z,75352.84
2022-09-14T13:55:23.955Z,75352.84
2022-09-14T13:58:15.132Z,75334.97
2022-09-14T14:00:50.735Z,75325.03
2022-09-14T14:03:27.124Z,75332.97
2022-09-14T14:05:53.987Z,75330.97
2022-09-14T14:08:37.340Z,75330.97
2022-09-14T14:11:07.136Z,75334.97
2022-09-14T14:13:37.061Z,75346.88
2022-09-14T14:16:21.854Z,75356.81
2022-09-14T14:18:58.047Z,75364.75
2022-09-14T14:21:24.937Z,75364.75
2022-09-14T14:24:12.203Z,75358.78
2022-09-14T14:26:48.896Z,75358.78
2022-09-14T14:29:16.467Z,75360.78
2022-09-14T14:31:43.872Z,75382.63
2022-09-14T14:34:21.405Z,75396.53
2022-09-14T14:36:50.139Z,75420.38
2022-09-14T14:39:22.542Z,75422.34
2022-09-14T14:41:50.169Z,75450.16
2022-09-14T14:44:20.783Z,75462.09
2022-09-14T14:46:47.925Z,75452.16
2022-09-14T14:49:17.180Z,75458.13
2022-09-14T14:51:43.875Z,75460.09
2022-09-14T14:54:10.432Z,75454.16
2022-09-14T14:56:40.090Z,75466.06
2022-09-14T14:59:31.022Z,75462.09
2022-09-14T15:01:58.447Z,75474.00
2022-09-14T15:04:25.407Z,75466.06
2022-09-14T15:06:53.207Z,75468.06
2022-09-14T15:09:28.075Z,75481.97
2022-09-14T15:11:54.832Z,75474.00
2022-09-14T15:14:26.951Z,75485.94
2022-09-14T15:16:57.925Z,75485.94
2022-09-14T15:19:25.428Z,75474.00
2022-09-14T15:21:52.198Z,75479.97
2022-09-14T15:24:18.765Z,75485.94
2022-09-14T15:26:45.359Z,75481.97
2022-09-14T15:29:18.154Z,75493.88
2022-09-14T15:31:44.680Z,75495.88
2022-09-14T15:34:11.342Z,75491.88
2022-09-14T15:36:52.186Z,75472.03
2022-09-14T15:39:39.754Z,75481.97
2022-09-14T15:42:06.554Z,75491.88
2022-09-14T15:44:33.197Z,75481.97
2022-09-14T15:46:59.682Z,75481.97
2022-09-14T15:49:26.573Z,75519.69
2022-09-14T15:51:55.049Z,75527.66
2022-09-14T15:54:30.978Z,75537.59
2022-09-14T15:57:01.358Z,75537.59
2022-09-14T15:59:28.880Z,75547.50
2022-09-14T16:01:55.965Z,75553.47
2022-09-14T16:04:22.716Z,75547.50
2022-09-14T16:06:49.425Z,75559.44
2022-09-14T16:09:17.467Z,75565.41
2022-09-14T16:11:44.204Z,75569.38
2022-09-14T16:14:11.421Z,75569.38
2022-09-14T16:16:38.472Z,75567.38
2022-09-14T16:19:10.883Z,75573.34
2022-09-14T16:21:37.855Z,75581.28
2022-09-14T16:24:06.771Z,75589.22
2022-09-14T16:26:36.828Z,75595.19
2022-09-14T16:29:04.665Z,75597.19
2022-09-14T16:31:33.884Z,75609.09
2022-09-14T16:34:03.182Z,75589.22
2022-09-14T16:36:33.192Z,75597.19
2022-09-14T16:39:02.230Z,75599.16
2022-09-14T16:41:29.196Z,75603.13
2022-09-14T16:43:57.140Z,75613.06
2022-09-14T16:46:25.140Z,75621.03
2022-09-14T16:48:52.007Z,75623.00
2022-09-14T16:51:22.678Z,75625.00
2022-09-14T16:53:50.618Z,75626.97
2022-09-14T16:56:26.184Z,75621.03
2022-09-14T16:58:54.555Z,75628.97
2022-09-14T17:01:35.648Z,75632.94
2022-09-14T17:04:09.782Z,75632.94
2022-09-14T17:06:38.472Z,75644.84
2022-09-14T17:09:09.009Z,75638.91
2022-09-14T17:11:37.112Z,75621.03
2022-09-14T17:14:04.565Z,75621.03
2022-09-14T17:16:31.128Z,75621.03
2022-09-14T17:19:02.687Z,75632.94
2022-09-14T17:21:35.203Z,75630.94
2022-09-14T17:24:04.437Z,75640.88
2022-09-14T17:26:31.535Z,75640.88
2022-09-14T17:28:59.303Z,75644.84
2022-09-14T17:31:28.721Z,75644.84
2022-09-14T17:33:57.739Z,75652.81
2022-09-14T17:36:25.252Z,75652.81
2022-09-14T17:38:54.263Z,75652.81
2022-09-14T17:41:23.148Z,75652.81
2022-09-14T17:43:57.439Z,75660.75
2022-09-14T17:46:24.904Z,75658.75
2022-09-14T17:48:52.074Z,75656.78
2022-09-14T17:51:24.348Z,75660.75
2022-09-14T17:53:53.331Z,75656.78
2022-09-14T17:56:22.269Z,75658.75
2022-09-14T17:58:56.930Z,75670.69
2022-09-14T18:01:23.467Z,75670.69
2022-09-14T18:03:58.205Z,75670.69
2022-09-14T18:06:35.601Z,75668.69
2022-09-14T18:09:06.005Z,75652.81
2022-09-14T18:11:32.683Z,75644.84
2022-09-14T18:13:59.958Z,75634.94
2022-09-14T18:16:27.738Z,75644.84
2022-09-14T18:18:54.770Z,75644.84
2022-09-14T18:21:24.568Z,75634.94
2022-09-14T18:24:07.925Z,75632.94
2022-09-14T18:26:34.509Z,75634.94
2022-09-14T18:29:01.209Z,75636.91
2022-09-14T18:31:28.072Z,75648.84
2022-09-14T18:33:59.111Z,75652.81
2022-09-14T18:36:29.043Z,75656.78
2022-09-14T18:38:58.772Z,75658.75
2022-09-14T18:41:28.881Z,75666.72
2022-09-14T18:43:55.491Z,75662.75
2022-09-14T18:46:27.132Z,75660.75
2022-09-14T18:48:56.805Z,75672.66
2022-09-14T18:51:23.561Z,75674.66
2022-09-14T18:53:56.421Z,75670.69
2022-09-14T18:56:22.879Z,75670.69
2022-09-14T18:58:49.367Z,75668.69
2022-09-14T19:01:18.498Z,75680.63
2022-09-14T19:03:45.080Z,75684.59
2022-09-14T19:06:14.243Z,75680.63
2022-09-14T19:08:41.717Z,75682.59
2022-09-14T19:11:11.827Z,75686.56
2022-09-14T19:13:39.125Z,75686.56
2022-09-14T19:16:18.315Z,75684.59
2022-09-14T19:18:49.314Z,75674.66
2022-09-14T19:21:23.354Z,75690.56
2022-09-14T19:24:06.323Z,75684.59
2022-09-14T19:26:45.301Z,75702.47
2022-09-14T19:29:16.158Z,75700.47
2022-09-14T19:31:43.333Z,75702.47
2022-09-14T19:34:10.441Z,75700.47
2022-09-14T19:36:36.953Z,75706.44
2022-09-14T19:39:06.601Z,75712.41
2022-09-14T19:41:34.570Z,75710.41
2022-09-14T19:44:02.364Z,75698.50
2022-09-14T19:46:30.066Z,75696.50
2022-09-14T19:48:57.011Z,75688.56
2022-09-14T19:51:25.830Z,75700.47
2022-09-14T19:53:55.038Z,75694.53
2022-09-14T19:56:25.577Z,75684.59
2022-09-14T19:58:55.448Z,75700.47
2022-09-14T20:01:23.903Z,75692.53
2022-09-14T20:03:50.973Z,75690.56
2022-09-14T20:06:23.568Z,75692.53
2022-09-14T20:08:57.555Z,75686.56
2022-09-14T20:11:26.372Z,75696.50
2022-09-14T20:13:57.943Z,75708.44
2022-09-14T20:16:33.679Z,75718.38
2022-09-14T20:19:04.844Z,75722.34
2022-09-14T20:21:31.308Z,75736.25
2022-09-14T20:24:16.691Z,75716.38
2022-09-14T20:26:48.386Z,75712.41
2022-09-14T20:29:16.435Z,75714.41
2022-09-14T20:31:45.844Z,75728.31
2022-09-14T20:34:13.388Z,75744.19
2022-09-14T20:36:40.001Z,75768.03
2022-09-14T20:39:06.868Z,75775.97
2022-09-14T20:41:34.857Z,75775.97
2022-09-14T20:44:01.991Z,75777.97
2022-09-14T20:46:38.506Z,75779.94
2022-09-14T20:49:07.691Z,75783.94
2022-09-14T20:51:36.087Z,75783.94
2022-09-14T20:54:02.858Z,75779.94
2022-09-14T20:56:32.105Z,75783.94
2022-09-14T20:59:00.842Z,75803.78
2022-09-14T21:01:31.455Z,75797.84
2022-09-14T21:04:10.039Z,75795.84
2022-09-14T21:06:39.233Z,75811.75
2022-09-14T21:09:07.289Z,75811.75
2022-09-14T21:11:34.629Z,75825.66
2022-09-14T21:14:01.743Z,75827.63
2022-09-14T21:16:34.343Z,75819.69
2022-09-14T21:19:03.711Z,75823.66
2022-09-14T21:21:30.527Z,75815.72
2022-09-14T21:23:59.083Z,75811.75
2022-09-14T21:26:27.544Z,75823.66
2022-09-14T21:28:56.973Z,75827.63
2022-09-14T21:31:25.143Z,75827.63
2022-09-14T21:33:54.588Z,75815.72
2022-09-14T21:36:30.004Z,75791.88
2022-09-14T21:38:59.803Z,75815.72
2022-09-14T21:41:28.804Z,75833.59
2022-09-14T21:43:56.522Z,75827.63
2022-09-14T21:46:24.261Z,75841.53
2022-09-14T21:48:52.113Z,75839.56
2022-09-14T21:51:27.430Z,75839.56
2022-09-14T21:54:00.547Z,75839.56
2022-09-14T21:56:29.874Z,75847.50
2022-09-14T21:58:58.516Z,75829.63
2022-09-14T22:01:25.906Z,75833.59
2022-09-14T22:03:53.860Z,75835.59
2022-09-14T22:06:23.203Z,75825.66
2022-09-14T22:08:50.686Z,75831.59
2022-09-14T22:11:26.074Z,75839.56
2022-09-14T22:14:02.405Z,75833.59
2022-09-14T22:16:31.042Z,75837.56
2022-09-14T22:19:00.228Z,75833.59
2022-09-14T22:21:28.758Z,75853.47
2022-09-14T22:23:57.620Z,75855.44
2022-09-14T22:26:25.505Z,75853.47
2022-09-14T22:28:53.662Z,75867.38
2022-09-14T22:31:22.804Z,75865.38
2022-09-14T22:33:51.013Z,75869.34
2022-09-14T22:36:17.612Z,75863.41
2022-09-14T22:38:44.280Z,75853.47
2022-09-14T22:41:13.533Z,75855.44
2022-09-14T22:43:41.028Z,75865.38
2022-09-14T22:46:08.876Z,75859.41
2022-09-14T22:48:36.699Z,75853.47
2022-09-14T22:51:05.976Z,75863.41
2022-09-14T22:53:33.628Z,75859.41
2022-09-14T22:56:08.091Z,75857.44
2022-09-14T22:58:34.694Z,75867.38
2022-09-14T23:01:10.406Z,75859.41
2022-09-14T23:03:37.280Z,75851.47
2022-09-14T23:06:04.370Z,75867.38
2022-09-14T23:08:31.516Z,75867.38
2022-09-14T23:11:04.243Z,75863.41
2022-09-14T23:13:31.062Z,75861.41
2022-09-14T23:15:57.593Z,75879.28
2022-09-14T23:18:24.050Z,75875.31
2022-09-14T23:20:50.621Z,75875.31
2022-09-14T23:23:17.097Z,75873.31
2022-09-14T23:25:43.558Z,75891.22
2022-09-14T23:28:11.933Z,75889.22
2022-09-14T23:30:39.003Z,75879.28
2022-09-14T23:33:05.683Z,75895.19
2022-09-14T23:35:34.685Z,75883.25
2022-09-14T23:38:04.023Z,75889.22
2022-09-14T23:40:30.539Z,75883.25
2022-09-14T23:42:57.123Z,75883.25
2022-09-14T23:45:23.694Z,75893.19
2022-09-14T23:47:50.164Z,75895.19
2022-09-14T23:50:16.764Z,75887.22
2022-09-14T23:52:43.385Z,75899.16
2022-09-14T23:55:10.071Z,75891.22
2022-09-14T23:57:36.765Z,75901.16
